Time;durP1;ratioP1;P1;durP2;ratioP2;P2;SDS_P1;SDS_P2;PMS_P1;PMS_P2;Temp;Humidity;BMP_temperature;BMP_pressure;BME280_temperature;BME280_humidity;BME280_pressure;Samples;Min_cycle;Max_cycle;Signal;HPM_P1;HPM_P2
2021/01/21 10:38:54;;;;;;;6.32;1.80;;;;;;;;;;5130313;27;20382;-65
2021/01/21 10:41:40;;;;;;;8.30;1.83;;;;;;;;;;5129634;27;20458;-65
2021/01/21 10:44:25;;;;;;;10.48;1.63;;;;;;;;;;5130135;27;20126;-65
2021/01/21 10:47:11;;;;;;;9.63;2.42;;;;;;;;;;5128800;27;20085;-65
2021/01/21 10:49:56;;;;;;;11.10;2.42;;;;;;;;;;5128658;27;20459;-65
2021/01/21 10:52:42;;;;;;;6.70;1.92;;;;;;;;;;5131333;22;20041;-68
2021/01/21 10:55:27;;;;;;;7.68;1.60;;;;;;;;;;5058036;28;20041;-67
2021/01/21 10:58:13;;;;;;;9.98;3.00;;;;;;;;;;5058302;28;20045;-67
2021/01/21 11:00:59;;;;;;;11.55;2.47;;;;;;;;;;5059019;28;20049;-69
2021/01/21 11:03:44;;;;;;;11.07;2.10;;;;;;;;;;5065685;28;20062;-68
2021/01/21 11:06:29;;;;;;;13.05;2.22;;;;;;;;;;5068346;28;20092;-68
2021/01/21 11:09:15;;;;;;;13.43;2.22;;;;;;;;;;5068519;28;20071;-68
2021/01/21 11:12:00;;;;;;;7.85;1.60;;;;;;;;;;5068246;28;20052;-68
2021/01/21 11:14:49;;;;;;;11.88;2.78;;;;;;;;;;5068459;28;20099;-69
2021/01/21 11:17:34;;;;;;;6.63;1.85;;;;;;;;;;5067966;28;20040;-68
2021/01/21 11:20:19;;;;;;;9.88;2.17;;;;;;;;;;5068221;28;20048;-69
2021/01/21 11:23:04;;;;;;;12.52;2.35;;;;;;;;;;5067215;28;20482;-69
2021/01/21 11:25:50;;;;;;;10.32;1.95;;;;;;;;;;5068132;28;20041;-69
2021/01/21 11:28:35;;;;;;;8.30;1.63;;;;;;;;;;5048181;28;20041;-69
2021/01/21 11:31:21;;;;;;;10.45;2.38;;;;;;;;;;5048120;28;20492;-69
2021/01/21 11:34:06;;;;;;;7.55;2.05;;;;;;;;;;5048224;28;20099;-68
2021/01/21 11:36:52;;;;;;;8.45;1.58;;;;;;;;;;5052648;28;20044;-69
2021/01/21 11:39:37;;;;;;;11.52;1.85;;;;;;;;;;5053013;28;20041;-69
2021/01/21 11:42:23;;;;;;;8.30;1.80;;;;;;;;;;5052862;28;20560;-68
2021/01/21 11:45:08;;;;;;;8.57;1.70;;;;;;;;;;5067945;28;20041;-69
2021/01/21 11:47:53;;;;;;;10.05;1.90;;;;;;;;;;5067519;28;20049;-68
2021/01/21 11:50:39;;;;;;;6.68;1.60;;;;;;;;;;5054421;28;20124;-68
2021/01/21 11:53:26;;;;;;;5.82;1.83;;;;;;;;;;5054317;28;20049;-69
2021/01/21 11:56:11;;;;;;;8.52;1.85;;;;;;;;;;5054307;28;20052;-70
2021/01/21 11:58:56;;;;;;;11.60;1.85;;;;;;;;;;5053320;28;20235;-68
2021/01/21 12:01:42;;;;;;;7.20;1.60;;;;;;;;;;5054376;28;20045;-68
2021/01/21 12:04:27;;;;;;;10.20;2.55;;;;;;;;;;5054497;28;20041;-68
2021/01/21 12:07:12;;;;;;;7.43;2.42;;;;;;;;;;5052029;28;20147;-68
2021/01/21 12:09:57;;;;;;;7.28;1.85;;;;;;;;;;5025890;28;20054;-68
2021/01/21 12:12:42;;;;;;;7.75;1.40;;;;;;;;;;5032614;28;20034;-70
2021/01/21 12:15:28;;;;;;;9.40;2.05;;;;;;;;;;5033438;28;20495;-69
2021/01/21 12:18:13;;;;;;;10.88;2.03;;;;;;;;;;5016416;28;20357;-69
2021/01/21 12:20:58;;;;;;;9.45;2.15;;;;;;;;;;5031819;28;20416;-68
2021/01/21 12:23:44;;;;;;;9.18;2.10;;;;;;;;;;5032751;28;20041;-68
2021/01/21 12:26:29;;;;;;;11.00;1.95;;;;;;;;;;5033857;28;20048;-68
2021/01/21 12:29:14;;;;;;;10.00;2.05;;;;;;;;;;5033832;28;20045;-68
2021/01/21 12:31:59;;;;;;;4.65;1.60;;;;;;;;;;5018934;28;20045;-69
2021/01/21 12:34:45;;;;;;;8.80;1.92;;;;;;;;;;5033501;28;20049;-68
2021/01/21 12:37:30;;;;;;;5.32;1.67;;;;;;;;;;5032011;28;20046;-68
2021/01/21 12:40:15;;;;;;;6.07;1.80;;;;;;;;;;5032643;28;20037;-68
2021/01/21 12:43:01;;;;;;;6.70;1.45;;;;;;;;;;5030763;28;20488;-69
2021/01/21 12:45:46;;;;;;;6.97;1.77;;;;;;;;;;5031694;28;20037;-68
2021/01/21 12:48:31;;;;;;;11.18;1.42;;;;;;;;;;5033830;28;20407;-68
2021/01/21 12:51:18;;;;;;;5.10;1.70;;;;;;;;;;5014370;28;20399;-68
2021/01/21 12:54:03;;;;;;;9.73;2.50;;;;;;;;;;5032833;28;20041;-68
2021/01/21 12:56:49;;;;;;;6.40;1.40;;;;;;;;;;5033310;28;20042;-68
2021/01/21 12:59:34;;;;;;;8.30;1.55;;;;;;;;;;5033213;28;20044;-68
2021/01/21 13:02:20;;;;;;;5.90;1.70;;;;;;;;;;5032590;28;20045;-69
2021/01/21 13:05:06;;;;;;;7.43;1.75;;;;;;;;;;5033459;28;20037;-68
2021/01/21 13:07:51;;;;;;;6.22;1.45;;;;;;;;;;5032090;28;20041;-67
2021/01/21 13:10:36;;;;;;;8.90;1.75;;;;;;;;;;5032446;28;20045;-67
2021/01/21 13:13:23;;;;;;;8.00;2.03;;;;;;;;;;5031286;28;20112;-67
2021/01/21 13:16:08;;;;;;;8.43;1.77;;;;;;;;;;5031006;28;20129;-69
2021/01/21 13:18:54;;;;;;;8.05;1.80;;;;;;;;;;5032894;28;20492;-67
2021/01/21 13:21:41;;;;;;;5.80;1.40;;;;;;;;;;5032580;28;20399;-67
2021/01/21 13:24:27;;;;;;;7.70;2.10;;;;;;;;;;5032898;28;20045;-68
2021/01/21 13:27:12;;;;;;;8.23;1.60;;;;;;;;;;5032626;28;20046;-67
2021/01/21 13:29:57;;;;;;;6.75;1.92;;;;;;;;;;5032693;28;20041;-67
2021/01/21 13:32:42;;;;;;;6.93;1.70;;;;;;;;;;5020994;28;20037;-68
2021/01/21 13:35:28;;;;;;;11.85;1.77;;;;;;;;;;5017712;28;20125;-68
2021/01/21 13:38:13;;;;;;;8.73;1.85;;;;;;;;;;5032557;28;20169;-68
2021/01/21 13:40:59;;;;;;;5.53;2.13;;;;;;;;;;5035352;28;20037;-69
2021/01/21 13:43:45;;;;;;;6.03;1.98;;;;;;;;;;5052327;28;20048;-67
2021/01/21 13:46:30;;;;;;;7.07;1.55;;;;;;;;;;5052202;28;20033;-68
2021/01/21 13:49:15;;;;;;;4.30;1.27;;;;;;;;;;5052263;28;20049;-67
2021/01/21 13:52:01;;;;;;;9.48;1.95;;;;;;;;;;5041772;28;20041;-67
2021/01/21 13:54:46;;;;;;;5.65;1.55;;;;;;;;;;5031336;28;20046;-67
2021/01/21 13:57:31;;;;;;;7.10;1.23;;;;;;;;;;5031095;28;20763;-66
2021/01/21 14:00:16;;;;;;;8.25;1.80;;;;;;;;;;5032223;28;20120;-66
2021/01/21 14:03:02;;;;;;;4.00;1.48;;;;;;;;;;5031792;28;20046;-66
2021/01/21 14:05:47;;;;;;;5.85;1.40;;;;;;;;;;5017328;28;20041;-66
2021/01/21 14:08:32;;;;;;;4.05;1.60;;;;;;;;;;5032032;28;20049;-66
2021/01/21 14:11:18;;;;;;;9.82;1.70;;;;;;;;;;5031740;28;20073;-67
2021/01/21 14:14:03;;;;;;;9.70;2.58;;;;;;;;;;5031897;28;20050;-67
2021/01/21 14:16:49;;;;;;;4.00;1.70;;;;;;;;;;5030863;28;20057;-68
2021/01/21 14:19:35;;;;;;;5.20;1.98;;;;;;;;;;5031824;28;20042;-67
2021/01/21 14:22:20;;;;;;;8.82;1.92;;;;;;;;;;5031606;28;20041;-68
2021/01/21 14:25:08;;;;;;;9.65;2.33;;;;;;;;;;5031704;28;20112;-69
2021/01/21 14:27:54;;;;;;;7.10;1.63;;;;;;;;;;5031675;28;20053;-69
2021/01/21 14:30:39;;;;;;;8.55;1.90;;;;;;;;;;5031942;28;20495;-68
2021/01/21 14:33:26;;;;;;;6.47;1.00;;;;;;;;;;5031504;28;20120;-69
2021/01/21 14:36:11;;;;;;;7.60;1.63;;;;;;;;;;5031612;28;20041;-69
2021/01/21 14:39:00;;;;;;;5.13;1.25;;;;;;;;;;5031631;28;20046;-68
2021/01/21 14:41:45;;;;;;;7.05;1.23;;;;;;;;;;5031553;28;20491;-69
2021/01/21 14:44:31;;;;;;;7.13;1.50;;;;;;;;;;5031441;28;20095;-69
2021/01/21 14:47:17;;;;;;;5.35;2.28;;;;;;;;;;5011965;28;20419;-69
2021/01/21 14:50:02;;;;;;;5.25;1.15;;;;;;;;;;5011990;28;20164;-69
2021/01/21 14:52:47;;;;;;;4.13;1.10;;;;;;;;;;5011530;28;20089;-69
2021/01/21 14:55:33;;;;;;;7.50;1.38;;;;;;;;;;5011912;28;20090;-69
2021/01/21 14:58:18;;;;;;;9.35;1.17;;;;;;;;;;5011650;28;20045;-69
2021/01/21 15:01:04;;;;;;;5.40;1.50;;;;;;;;;;5011837;28;20069;-70
2021/01/21 15:03:49;;;;;;;9.13;1.58;;;;;;;;;;5015402;28;20038;-70
2021/01/21 15:06:34;;;;;;;5.13;1.50;;;;;;;;;;5031419;28;20045;-70
2021/01/21 15:09:19;;;;;;;10.30;1.92;;;;;;;;;;5031427;28;20050;-70
2021/01/21 15:12:05;;;;;;;4.53;1.52;;;;;;;;;;5031044;28;20065;-70
2021/01/21 15:14:50;;;;;;;5.05;1.42;;;;;;;;;;5031560;28;20069;-69
2021/01/21 15:17:35;;;;;;;5.72;2.38;;;;;;;;;;5031289;28;20046;-70
2021/01/21 15:20:21;;;;;;;5.88;2.00;;;;;;;;;;5031548;28;20041;-69
2021/01/21 15:23:06;;;;;;;7.18;1.55;;;;;;;;;;5030730;28;20033;-70
2021/01/21 15:25:51;;;;;;;4.57;2.13;;;;;;;;;;5032498;28;20041;-69
2021/01/21 15:28:36;;;;;;;7.68;1.60;;;;;;;;;;5033196;28;20499;-70
2021/01/21 15:31:22;;;;;;;5.90;1.33;;;;;;;;;;5033669;28;20061;-69
2021/01/21 15:34:08;;;;;;;2.95;1.35;;;;;;;;;;5034294;28;20037;-71
2021/01/21 15:36:53;;;;;;;4.05;1.20;;;;;;;;;;5032394;28;20167;-70
2021/01/21 15:39:39;;;;;;;6.85;1.63;;;;;;;;;;5030514;28;20514;-70
2021/01/21 15:42:24;;;;;;;3.65;1.33;;;;;;;;;;5035097;28;20482;-71
2021/01/21 15:45:10;;;;;;;4.35;1.50;;;;;;;;;;5031575;28;20068;-71
2021/01/21 15:47:55;;;;;;;7.60;2.03;;;;;;;;;;5032407;28;20041;-70
2021/01/21 15:50:40;;;;;;;7.95;1.67;;;;;;;;;;5032264;28;20128;-70
2021/01/21 15:53:26;;;;;;;7.03;1.70;;;;;;;;;;5033630;28;20073;-70
2021/01/21 15:56:11;;;;;;;9.10;1.40;;;;;;;;;;5034329;28;20069;-70
2021/01/21 15:58:57;;;;;;;8.45;1.83;;;;;;;;;;5034131;28;20466;-70
2021/01/21 16:01:42;;;;;;;7.70;1.48;;;;;;;;;;5033905;28;20045;-70
2021/01/21 16:04:27;;;;;;;9.40;1.67;;;;;;;;;;5019618;28;20042;-70
2021/01/21 16:07:12;;;;;;;8.38;1.98;;;;;;;;;;5034268;28;20037;-69
2021/01/21 16:09:58;;;;;;;6.53;1.35;;;;;;;;;;5034076;28;20462;-69
2021/01/21 16:12:43;;;;;;;7.72;1.52;;;;;;;;;;5034089;28;20480;-70
2021/01/21 16:15:28;;;;;;;4.65;1.67;;;;;;;;;;5033123;28;20048;-70
2021/01/21 16:18:15;;;;;;;5.03;1.20;;;;;;;;;;5033842;28;20045;-69
2021/01/21 16:21:00;;;;;;;6.38;1.23;;;;;;;;;;5033635;28;20037;-69
2021/01/21 16:23:46;;;;;;;4.15;1.60;;;;;;;;;;5034002;28;20049;-69
2021/01/21 16:26:33;;;;;;;6.82;2.47;;;;;;;;;;5033185;28;20042;-70
2021/01/21 16:29:18;;;;;;;5.50;1.67;;;;;;;;;;5032147;28;20045;-70
2021/01/21 16:32:03;;;;;;;5.20;1.80;;;;;;;;;;5033465;28;20041;-69
2021/01/21 16:34:50;;;;;;;5.78;1.67;;;;;;;;;;5031804;28;20527;-69
2021/01/21 16:37:36;;;;;;;6.28;2.17;;;;;;;;;;5032928;28;20069;-69
2021/01/21 16:40:21;;;;;;;6.47;1.55;;;;;;;;;;5031906;28;20049;-70
2021/01/21 16:43:06;;;;;;;10.88;1.75;;;;;;;;;;5018428;28;20041;-69
2021/01/21 16:45:52;;;;;;;4.45;1.20;;;;;;;;;;5033360;28;20041;-69
2021/01/21 16:48:37;;;;;;;5.95;1.95;;;;;;;;;;5033491;28;20415;-69
2021/01/21 16:51:22;;;;;;;5.20;1.40;;;;;;;;;;5033438;28;20038;-69
2021/01/21 16:54:08;;;;;;;6.28;1.30;;;;;;;;;;5032130;28;20041;-69
2021/01/21 16:56:54;;;;;;;8.43;1.30;;;;;;;;;;5026435;28;20045;-69
2021/01/21 16:59:40;;;;;;;10.00;1.42;;;;;;;;;;5030371;28;20045;-69
2021/01/21 17:02:26;;;;;;;3.95;1.27;;;;;;;;;;5031206;28;20046;-69
2021/01/21 17:05:11;;;;;;;8.07;1.60;;;;;;;;;;5031500;28;20037;-69
2021/01/21 17:07:56;;;;;;;7.63;1.42;;;;;;;;;;5006469;28;20053;-69
2021/01/21 17:10:41;;;;;;;6.72;1.60;;;;;;;;;;5029945;28;20519;-71
2021/01/21 17:13:27;;;;;;;4.45;1.38;;;;;;;;;;5023191;28;20058;-69
2021/01/21 17:16:12;;;;;;;7.10;1.30;;;;;;;;;;5021753;28;20527;-69
2021/01/21 17:18:57;;;;;;;5.75;1.48;;;;;;;;;;5030960;28;20041;-69
2021/01/21 17:21:42;;;;;;;5.55;2.40;;;;;;;;;;5029082;28;20049;-69
2021/01/21 17:24:28;;;;;;;6.38;1.17;;;;;;;;;;5014448;28;20049;-70
2021/01/21 17:27:13;;;;;;;10.43;1.65;;;;;;;;;;5030384;28;20463;-69
2021/01/21 17:29:58;;;;;;;5.90;1.70;;;;;;;;;;5011176;28;20128;-70
2021/01/21 17:32:43;;;;;;;6.57;1.27;;;;;;;;;;5029829;28;20129;-69
2021/01/21 17:35:32;;;;;;;3.75;1.33;;;;;;;;;;5028276;28;20053;-69
2021/01/21 17:38:18;;;;;;;6.97;1.52;;;;;;;;;;5029929;28;20248;-68
2021/01/21 17:41:03;;;;;;;6.30;1.60;;;;;;;;;;5029055;28;20057;-68
2021/01/21 17:43:48;;;;;;;7.95;1.70;;;;;;;;;;5024357;23;20045;-66
2021/01/21 17:46:34;;;;;;;6.60;1.30;;;;;;;;;;5027981;28;20042;-66
2021/01/21 17:49:19;;;;;;;9.57;1.88;;;;;;;;;;5030859;28;20045;-66
2021/01/21 17:52:05;;;;;;;7.68;1.27;;;;;;;;;;5021402;28;20053;-66
2021/01/21 17:54:51;;;;;;;6.65;1.38;;;;;;;;;;5026848;28;20037;-66
2021/01/21 17:57:36;;;;;;;3.90;1.35;;;;;;;;;;5034940;28;20458;-66
2021/01/21 18:00:21;;;;;;;6.28;1.75;;;;;;;;;;5036202;28;20109;-66
2021/01/21 18:03:07;;;;;;;7.88;1.50;;;;;;;;;;5036221;28;20103;-66
2021/01/21 18:05:53;;;;;;;3.67;1.10;;;;;;;;;;5036280;28;20045;-65
2021/01/21 18:08:38;;;;;;;4.32;1.48;;;;;;;;;;5030965;28;20045;-66
2021/01/21 18:11:24;;;;;;;7.80;2.38;;;;;;;;;;5024847;28;20042;-66
2021/01/21 18:14:09;;;;;;;5.28;1.10;;;;;;;;;;5008496;28;20038;-66
2021/01/21 18:16:54;;;;;;;4.78;0.98;;;;;;;;;;5022648;28;20041;-66
2021/01/21 18:19:39;;;;;;;7.38;1.88;;;;;;;;;;5021945;28;20044;-66
2021/01/21 18:22:24;;;;;;;8.82;1.70;;;;;;;;;;5020552;28;20121;-66
2021/01/21 18:25:10;;;;;;;9.13;1.48;;;;;;;;;;5023727;28;20048;-66
2021/01/21 18:27:55;;;;;;;9.20;1.50;;;;;;;;;;5020082;28;20057;-66
2021/01/21 18:30:40;;;;;;;7.32;2.10;;;;;;;;;;5021269;28;20052;-66
2021/01/21 18:33:25;;;;;;;4.82;1.67;;;;;;;;;;5020332;28;20053;-66
2021/01/21 18:36:10;;;;;;;4.38;1.40;;;;;;;;;;5019170;28;20743;-66
2021/01/21 18:38:56;;;;;;;10.02;1.58;;;;;;;;;;5019942;28;20042;-66
2021/01/21 18:41:41;;;;;;;9.20;2.17;;;;;;;;;;5021890;28;20042;-66
2021/01/21 18:44:27;;;;;;;8.02;1.40;;;;;;;;;;5014101;28;20037;-66
2021/01/21 18:47:12;;;;;;;9.25;2.08;;;;;;;;;;5032354;28;20088;-66
2021/01/21 18:49:58;;;;;;;8.15;2.75;;;;;;;;;;5032040;28;20487;-65
2021/01/21 18:52:43;;;;;;;6.53;1.60;;;;;;;;;;5032532;28;20053;-66
2021/01/21 18:55:28;;;;;;;5.80;1.38;;;;;;;;;;5031652;28;20049;-65
2021/01/21 18:58:14;;;;;;;5.40;1.50;;;;;;;;;;5031443;28;20065;-66
2021/01/21 19:00:59;;;;;;;7.85;2.30;;;;;;;;;;5035971;28;20046;-66
2021/01/21 19:03:44;;;;;;;8.43;1.63;;;;;;;;;;5035054;28;20080;-65
2021/01/21 19:06:29;;;;;;;3.67;1.63;;;;;;;;;;5035547;28;20037;-66
2021/01/21 19:09:15;;;;;;;12.98;2.25;;;;;;;;;;5036012;28;20053;-66
2021/01/21 19:12:00;;;;;;;6.15;1.55;;;;;;;;;;5035868;28;20073;-66
2021/01/21 19:14:45;;;;;;;8.95;1.90;;;;;;;;;;5033258;28;20393;-66
2021/01/21 19:17:31;;;;;;;9.27;2.35;;;;;;;;;;5024112;28;20136;-66
2021/01/21 19:20:16;;;;;;;8.68;1.73;;;;;;;;;;5025507;28;20041;-67
2021/01/21 19:23:01;;;;;;;6.38;1.58;;;;;;;;;;5023094;28;20048;-67
2021/01/21 19:25:46;;;;;;;7.03;1.52;;;;;;;;;;5005526;28;20483;-67
2021/01/21 19:28:31;;;;;;;7.40;1.20;;;;;;;;;;5019567;28;20037;-67
2021/01/21 19:31:16;;;;;;;7.32;2.10;;;;;;;;;;5033309;28;20068;-67
2021/01/21 19:34:02;;;;;;;10.18;1.70;;;;;;;;;;5029886;28;20073;-66
2021/01/21 19:36:47;;;;;;;9.05;1.95;;;;;;;;;;5031760;28;20049;-67
2021/01/21 19:39:32;;;;;;;7.85;1.70;;;;;;;;;;5011930;28;20049;-66
2021/01/21 19:42:18;;;;;;;7.20;1.77;;;;;;;;;;5012697;28;20045;-66
2021/01/21 19:45:03;;;;;;;9.57;1.65;;;;;;;;;;5007795;28;20500;-66
2021/01/21 19:47:49;;;;;;;8.10;1.58;;;;;;;;;;4997252;28;20041;-66
2021/01/21 19:50:34;;;;;;;8.52;1.83;;;;;;;;;;5011919;28;20045;-65
2021/01/21 19:53:20;;;;;;;10.73;1.85;;;;;;;;;;5012831;28;20061;-65
2021/01/21 19:56:05;;;;;;;4.10;1.30;;;;;;;;;;5011794;28;20050;-65
2021/01/21 19:58:50;;;;;;;8.85;1.80;;;;;;;;;;5012160;28;20452;-65
2021/01/21 20:01:36;;;;;;;9.65;1.67;;;;;;;;;;5011693;28;20045;-66
2021/01/21 20:04:21;;;;;;;7.68;1.70;;;;;;;;;;5012496;28;20057;-65
2021/01/21 20:07:06;;;;;;;8.63;1.95;;;;;;;;;;5012651;28;20041;-65
2021/01/21 20:09:51;;;;;;;10.73;1.60;;;;;;;;;;5011325;28;20037;-66
2021/01/21 20:12:37;;;;;;;5.50;1.30;;;;;;;;;;5011347;28;20053;-65
2021/01/21 20:15:22;;;;;;;5.55;1.83;;;;;;;;;;5012430;28;20042;-65
2021/01/21 20:18:07;;;;;;;5.30;1.00;;;;;;;;;;5012174;28;20141;-65
2021/01/21 20:20:52;;;;;;;6.68;1.40;;;;;;;;;;5012122;28;20042;-66
2021/01/21 20:23:38;;;;;;;8.38;1.77;;;;;;;;;;5011848;28;20054;-66
2021/01/21 20:26:23;;;;;;;4.82;0.75;;;;;;;;;;5011768;28;20089;-65
2021/01/21 20:29:09;;;;;;;4.13;0.68;;;;;;;;;;5011994;28;20439;-65
2021/01/21 20:31:54;;;;;;;3.45;0.77;;;;;;;;;;5012319;28;20038;-65
2021/01/21 20:34:39;;;;;;;4.45;0.90;;;;;;;;;;5011430;28;20412;-65
2021/01/21 20:37:24;;;;;;;5.60;1.25;;;;;;;;;;5012391;28;20042;-66
2021/01/21 20:40:10;;;;;;;3.55;0.60;;;;;;;;;;4997063;28;20038;-65
2021/01/21 20:42:55;;;;;;;3.05;0.73;;;;;;;;;;5011818;28;20468;-65
2021/01/21 20:45:41;;;;;;;2.22;0.70;;;;;;;;;;5006374;28;20500;-66
2021/01/21 20:48:27;;;;;;;4.88;0.57;;;;;;;;;;5011230;28;20042;-68
2021/01/21 20:51:12;;;;;;;2.88;0.70;;;;;;;;;;5012058;28;20567;-65
2021/01/21 20:53:58;;;;;;;2.40;0.55;;;;;;;;;;5011420;28;20050;-65
2021/01/21 20:56:43;;;;;;;2.25;0.50;;;;;;;;;;5010988;28;20038;-66
2021/01/21 20:59:32;;;;;;;2.38;0.55;;;;;;;;;;5010027;28;20062;-66
2021/01/21 21:02:17;;;;;;;3.45;0.90;;;;;;;;;;5011417;28;20042;-67
2021/01/21 21:05:03;;;;;;;5.28;0.75;;;;;;;;;;5007980;28;20046;-66
2021/01/21 21:07:49;;;;;;;3.67;0.70;;;;;;;;;;5004712;28;20689;-66
2021/01/21 21:10:34;;;;;;;1.65;0.60;;;;;;;;;;4991195;28;20444;-67
2021/01/21 21:13:19;;;;;;;4.25;0.80;;;;;;;;;;4991927;28;20058;-67
2021/01/21 21:16:04;;;;;;;4.70;1.00;;;;;;;;;;4992030;28;20047;-67
2021/01/21 21:18:50;;;;;;;2.53;0.90;;;;;;;;;;5011252;28;20057;-67
2021/01/21 21:21:35;;;;;;;2.45;1.17;;;;;;;;;;5010235;28;20045;-66
2021/01/21 21:24:20;;;;;;;5.88;1.08;;;;;;;;;;5010679;28;20065;-66
2021/01/21 21:27:05;;;;;;;3.63;1.02;;;;;;;;;;5011448;28;20125;-66
2021/01/21 21:29:50;;;;;;;3.03;0.93;;;;;;;;;;5010830;28;20062;-66
2021/01/21 21:32:35;;;;;;;1.95;0.80;;;;;;;;;;5010610;28;20416;-66
2021/01/21 21:35:21;;;;;;;5.32;1.77;;;;;;;;;;5011556;28;20415;-65
2021/01/21 21:38:06;;;;;;;3.45;1.02;;;;;;;;;;5010986;28;20046;-65
2021/01/21 21:40:51;;;;;;;5.43;1.05;;;;;;;;;;5010886;28;20041;-66
2021/01/21 21:43:37;;;;;;;2.45;1.10;;;;;;;;;;5010178;28;20050;-65
2021/01/21 21:46:22;;;;;;;2.10;1.30;;;;;;;;;;5009965;28;20443;-65
2021/01/21 21:49:08;;;;;;;2.72;1.80;;;;;;;;;;5001942;28;20566;-65
2021/01/21 21:51:54;;;;;;;5.05;1.95;;;;;;;;;;5010406;28;20042;-66
2021/01/21 21:54:39;;;;;;;6.95;1.95;;;;;;;;;;5010157;28;20042;-66
2021/01/21 21:57:24;;;;;;;7.95;2.00;;;;;;;;;;5010950;28;20511;-65
2021/01/21 22:00:11;;;;;;;7.97;2.17;;;;;;;;;;5006116;28;20136;-66
2021/01/21 22:02:56;;;;;;;8.82;2.30;;;;;;;;;;5010922;28;20435;-65
2021/01/21 22:05:44;;;;;;;4.47;2.25;;;;;;;;;;5010336;28;20034;-67
2021/01/21 22:08:29;;;;;;;7.95;2.30;;;;;;;;;;5010066;28;20054;-65
2021/01/21 22:11:14;;;;;;;4.22;2.33;;;;;;;;;;5010843;28;20104;-66
2021/01/21 22:14:00;;;;;;;3.15;2.03;;;;;;;;;;5010525;28;20062;-65
2021/01/21 22:16:45;;;;;;;8.73;2.75;;;;;;;;;;5009811;28;20662;-65
2021/01/21 22:19:30;;;;;;;4.25;1.33;;;;;;;;;;5009444;28;20133;-66
2021/01/21 22:22:16;;;;;;;2.70;1.15;;;;;;;;;;5010692;28;20042;-65
2021/01/21 22:25:01;;;;;;;4.18;1.40;;;;;;;;;;5010380;28;20085;-65
2021/01/21 22:27:46;;;;;;;5.28;1.55;;;;;;;;;;4995022;28;20125;-66
2021/01/21 22:30:31;;;;;;;5.68;1.60;;;;;;;;;;5009598;28;20454;-65
2021/01/21 22:33:16;;;;;;;5.13;1.90;;;;;;;;;;5010114;28;20042;-66
2021/01/21 22:36:02;;;;;;;3.78;1.92;;;;;;;;;;5010562;28;20053;-66
2021/01/21 22:38:47;;;;;;;3.72;1.58;;;;;;;;;;5009706;28;20050;-65
2021/01/21 22:41:32;;;;;;;6.38;2.58;;;;;;;;;;4989921;28;20043;-65
2021/01/21 22:44:18;;;;;;;9.25;2.70;;;;;;;;;;4986700;28;20047;-65
2021/01/21 22:47:03;;;;;;;5.53;2.72;;;;;;;;;;4990957;28;20042;-66
2021/01/21 22:49:49;;;;;;;7.18;2.42;;;;;;;;;;4994722;28;20050;-66
2021/01/21 22:52:34;;;;;;;4.13;1.83;;;;;;;;;;5009984;28;20046;-65
2021/01/21 22:55:20;;;;;;;6.70;3.58;;;;;;;;;;5010352;28;20054;-65
2021/01/21 22:58:05;;;;;;;8.30;3.15;;;;;;;;;;5010315;28;20497;-66
2021/01/21 23:00:50;;;;;;;7.10;3.33;;;;;;;;;;4999862;28;20428;-65
2021/01/21 23:03:35;;;;;;;10.38;3.85;;;;;;;;;;5009998;28;20481;-65
2021/01/21 23:06:21;;;;;;;6.93;3.03;;;;;;;;;;5010528;28;20136;-65
2021/01/21 23:09:06;;;;;;;3.78;2.25;;;;;;;;;;5010453;28;20147;-65
2021/01/21 23:11:51;;;;;;;5.97;2.42;;;;;;;;;;5010274;28;20058;-66
2021/01/21 23:14:37;;;;;;;3.83;1.65;;;;;;;;;;5009792;28;20508;-66
2021/01/21 23:17:25;;;;;;;7.13;2.65;;;;;;;;;;5010606;28;20144;-66
2021/01/21 23:20:11;;;;;;;6.47;2.47;;;;;;;;;;5010391;28;20050;-66
2021/01/21 23:22:56;;;;;;;2.88;1.92;;;;;;;;;;4991103;28;20038;-65
2021/01/21 23:25:42;;;;;;;6.03;2.70;;;;;;;;;;4992384;28;20129;-65
2021/01/21 23:28:27;;;;;;;6.07;2.67;;;;;;;;;;4993829;28;20504;-64
2021/01/21 23:31:12;;;;;;;4.75;3.20;;;;;;;;;;5011364;28;20042;-65
2021/01/21 23:33:58;;;;;;;6.50;4.13;;;;;;;;;;5011457;28;21591;-65
2021/01/21 23:36:43;;;;;;;8.43;4.07;;;;;;;;;;5011341;28;20054;-65
2021/01/21 23:39:28;;;;;;;5.88;3.05;;;;;;;;;;5010972;28;20504;-65
2021/01/21 23:42:13;;;;;;;8.88;2.78;;;;;;;;;;5010602;28;20042;-65
2021/01/21 23:44:59;;;;;;;5.90;1.48;;;;;;;;;;5007318;28;20057;-65
2021/01/21 23:47:44;;;;;;;2.95;1.20;;;;;;;;;;5013248;28;20049;-65
2021/01/21 23:50:30;;;;;;;2.65;1.17;;;;;;;;;;5013173;28;20062;-65
2021/01/21 23:53:15;;;;;;;2.40;1.00;;;;;;;;;;5013207;28;20089;-65
2021/01/21 23:56:00;;;;;;;3.17;0.80;;;;;;;;;;5013318;28;20049;-65
2021/01/21 23:58:46;;;;;;;3.05;0.90;;;;;;;;;;5013940;28;20504;-65
